createdAt,value
2024-02-03T00:02:22.576Z,4.43
2024-02-03T00:04:50.960Z,4.22
2024-02-03T00:07:19.356Z,4.28
2024-02-03T00:09:48.729Z,4.63
2024-02-03T00:12:20.656Z,5.18
2024-02-03T00:14:49.238Z,4.85
2024-02-03T00:17:17.649Z,4.60
2024-02-03T00:19:46.003Z,5.20
2024-02-03T00:22:14.568Z,4.97
2024-02-03T00:24:43.032Z,3.90
2024-02-03T00:27:11.459Z,4.30
2024-02-03T00:29:41.084Z,3.55
2024-02-03T00:32:09.381Z,4.18
2024-02-03T00:34:37.915Z,4.50
2024-02-03T00:37:06.328Z,4.60
2024-02-03T00:39:34.650Z,3.75
2024-02-03T00:42:02.959Z,4.13
2024-02-03T00:44:31.228Z,3.95
2024-02-03T00:47:00.832Z,3.80
2024-02-03T00:49:29.201Z,4.15
2024-02-03T00:51:57.561Z,3.33
2024-02-03T00:54:25.952Z,3.88
2024-02-03T00:56:54.229Z,3.75
2024-02-03T00:59:22.650Z,3.30
2024-02-03T01:01:50.935Z,3.42
2024-02-03T01:04:20.681Z,4.05
2024-02-03T01:06:50.805Z,4.13
2024-02-03T01:09:19.528Z,3.97
2024-02-03T01:11:48.077Z,3.35
2024-02-03T01:14:16.607Z,4.22
2024-02-03T01:16:45.815Z,4.40
2024-02-03T01:19:14.710Z,3.67
2024-02-03T01:21:44.553Z,4.30
2024-02-03T01:24:12.914Z,4.00
2024-02-03T01:26:41.200Z,3.50
2024-02-03T01:29:09.460Z,3.40
2024-02-03T01:31:38.647Z,3.30
2024-02-03T01:34:07.456Z,3.58
2024-02-03T01:36:35.902Z,3.83
2024-02-03T01:39:07.235Z,3.40
2024-02-03T01:41:35.689Z,3.80
2024-02-03T01:44:03.949Z,3.10
2024-02-03T01:46:32.279Z,3.30
2024-02-03T01:49:00.772Z,4.90
2024-02-03T01:51:30.066Z,3.25
2024-02-03T01:54:00.830Z,3.40
2024-02-03T01:56:35.007Z,3.65
2024-02-03T01:59:04.552Z,3.60
2024-02-03T02:01:33.290Z,3.30
2024-02-03T02:04:01.766Z,3.40
2024-02-03T02:06:31.298Z,3.22
2024-02-03T02:08:59.827Z,3.58
2024-02-03T02:11:28.872Z,3.03
2024-02-03T02:13:58.886Z,3.33
2024-02-03T02:16:30.181Z,3.20
2024-02-03T02:18:59.014Z,3.47
2024-02-03T02:21:28.920Z,3.40
2024-02-03T02:23:58.334Z,3.10
2024-02-03T02:26:26.722Z,2.80
2024-02-03T02:28:55.049Z,2.97
2024-02-03T02:31:23.318Z,3.25
2024-02-03T02:33:51.687Z,3.63
2024-02-03T02:36:20.119Z,4.47
2024-02-03T02:38:49.745Z,3.25
2024-02-03T02:41:17.998Z,3.67
2024-02-03T02:43:46.259Z,3.40
2024-02-03T02:46:14.525Z,4.20
2024-02-03T02:48:42.874Z,2.92
2024-02-03T02:51:11.282Z,3.33
2024-02-03T02:53:39.618Z,3.67
2024-02-03T02:56:09.368Z,3.30
2024-02-03T02:58:37.621Z,3.25
2024-02-03T03:01:06.086Z,2.78
2024-02-03T03:03:34.446Z,3.70
2024-02-03T03:06:02.672Z,3.35
2024-02-03T03:08:30.913Z,3.50
2024-02-03T03:10:59.164Z,3.85
2024-02-03T03:13:29.191Z,3.70
2024-02-03T03:15:57.460Z,2.92
2024-02-03T03:18:26.032Z,4.38
2024-02-03T03:20:54.306Z,3.40
2024-02-03T03:23:22.591Z,3.15
2024-02-03T03:25:51.377Z,4.03
2024-02-03T03:28:19.530Z,3.17
2024-02-03T03:30:49.148Z,3.55
2024-02-03T03:33:17.626Z,3.25
2024-02-03T03:35:45.868Z,3.30
2024-02-03T03:38:14.018Z,2.63
2024-02-03T03:40:42.181Z,3.45
2024-02-03T03:43:10.394Z,2.95
2024-02-03T03:45:38.740Z,2.65
2024-02-03T03:48:09.234Z,3.35
2024-02-03T03:50:37.486Z,3.25
2024-02-03T03:53:06.087Z,3.10
2024-02-03T03:55:34.280Z,3.08
2024-02-03T03:58:02.498Z,3.00
2024-02-03T04:00:30.687Z,3.00
2024-02-03T04:02:58.914Z,3.20
2024-02-03T04:05:28.411Z,3.30
2024-02-03T04:07:56.577Z,2.92
2024-02-03T04:10:24.914Z,2.75
2024-02-03T04:12:53.256Z,2.60
2024-02-03T04:15:21.501Z,2.60
2024-02-03T04:17:51.067Z,3.00
2024-02-03T04:20:19.474Z,2.28
2024-02-03T04:22:49.071Z,2.78
2024-02-03T04:25:17.254Z,2.47
2024-02-03T04:27:45.409Z,2.30
2024-02-03T04:30:22.599Z,2.85
2024-02-03T04:32:53.383Z,2.78
2024-02-03T04:35:21.851Z,2.92
2024-02-03T04:37:51.410Z,2.92
2024-02-03T04:40:19.745Z,2.90
2024-02-03T04:42:47.977Z,2.90
2024-02-03T04:45:16.422Z,2.75
2024-02-03T04:47:44.760Z,2.45
2024-02-03T04:50:13.075Z,2.42
2024-02-03T04:52:41.345Z,2.50
2024-02-03T04:55:10.886Z,2.60
2024-02-03T04:57:39.081Z,2.90
2024-02-03T05:00:09.606Z,2.92
2024-02-03T05:02:38.066Z,3.10
2024-02-03T05:05:06.340Z,3.55
2024-02-03T05:07:34.735Z,2.78
2024-02-03T05:10:03.045Z,3.10
2024-02-03T05:12:34.078Z,2.45
2024-02-03T05:15:05.277Z,2.80
2024-02-03T05:17:34.518Z,2.80
2024-02-03T05:20:03.097Z,3.33
2024-02-03T05:22:31.247Z,4.10
2024-02-03T05:24:59.446Z,3.10
2024-02-03T05:27:27.677Z,3.70
2024-02-03T05:29:57.404Z,4.25
2024-02-03T05:32:25.942Z,3.42
2024-02-03T05:34:54.378Z,3.35
2024-02-03T05:37:22.831Z,3.47
2024-02-03T05:39:51.099Z,3.47
2024-02-03T05:42:22.972Z,3.50
2024-02-03T05:44:52.117Z,3.35
2024-02-03T05:47:21.631Z,3.35
2024-02-03T05:49:49.879Z,3.58
2024-02-03T05:52:18.048Z,3.17
2024-02-03T05:54:46.329Z,3.42
2024-02-03T05:57:14.674Z,4.57
2024-02-03T05:59:50.615Z,3.60
2024-02-03T06:02:21.406Z,3.10
2024-02-03T06:04:49.890Z,3.35
2024-02-03T06:07:18.858Z,3.80
2024-02-03T06:09:47.394Z,3.30
2024-02-03T06:12:15.851Z,3.50
2024-02-03T06:14:45.190Z,2.80
2024-02-03T06:17:14.301Z,3.60
2024-02-03T06:19:44.761Z,3.13
2024-02-03T06:22:13.160Z,3.38
2024-02-03T06:24:41.402Z,3.15
2024-02-03T06:27:09.792Z,3.53
2024-02-03T06:29:37.934Z,2.85
2024-02-03T06:32:06.391Z,3.53
2024-02-03T06:34:34.998Z,3.08
2024-02-03T06:37:05.310Z,2.78
2024-02-03T06:39:33.722Z,3.08
2024-02-03T06:42:01.976Z,2.70
2024-02-03T06:44:30.113Z,3.15
2024-02-03T06:46:58.371Z,2.95
2024-02-03T06:49:26.663Z,3.40
2024-02-03T06:51:55.056Z,2.88
2024-02-03T06:54:24.686Z,3.33
2024-02-03T06:56:52.994Z,3.58
2024-02-03T06:59:21.182Z,3.42
2024-02-03T07:01:51.234Z,3.42
2024-02-03T07:04:19.624Z,2.97
2024-02-03T07:06:48.008Z,3.47
2024-02-03T07:09:16.248Z,4.70
2024-02-03T07:11:56.631Z,3.10
2024-02-03T07:14:31.637Z,3.20
2024-02-03T07:16:59.913Z,3.38
2024-02-03T07:19:28.746Z,3.38
2024-02-03T07:21:57.233Z,3.45
2024-02-03T07:24:25.938Z,2.83
2024-02-03T07:26:55.438Z,2.88
2024-02-03T07:29:23.737Z,2.92
2024-02-03T07:32:00.514Z,3.65
2024-02-03T07:34:28.887Z,4.00
2024-02-03T07:36:57.306Z,3.78
2024-02-03T07:39:25.579Z,3.78
2024-02-03T07:41:55.074Z,3.40
2024-02-03T07:44:23.261Z,3.78
2024-02-03T07:46:51.396Z,3.53
2024-02-03T07:49:19.639Z,3.55
2024-02-03T07:51:47.918Z,3.63
2024-02-03T07:54:16.182Z,2.97
2024-02-03T07:56:44.427Z,3.20
2024-02-03T07:59:15.622Z,4.10
2024-02-03T08:01:43.814Z,4.05
2024-02-03T08:04:13.084Z,3.00
2024-02-03T08:06:41.888Z,3.10
2024-02-03T08:09:10.072Z,4.53
2024-02-03T08:11:38.337Z,4.00
2024-02-03T08:14:06.549Z,3.08
2024-02-03T08:16:36.100Z,3.00
2024-02-03T08:19:04.430Z,2.95
2024-02-03T08:21:32.929Z,2.40
2024-02-03T08:24:02.832Z,3.42
2024-02-03T08:26:31.287Z,2.95
2024-02-03T08:28:59.550Z,2.97
2024-02-03T08:31:27.731Z,2.95
2024-02-03T08:33:58.757Z,3.40
2024-02-03T08:36:27.205Z,3.72
2024-02-03T08:38:55.505Z,3.85
2024-02-03T08:41:23.726Z,3.10
2024-02-03T08:43:51.900Z,2.60
2024-02-03T08:46:20.048Z,3.28
2024-02-03T08:48:48.398Z,2.85
2024-02-03T08:51:19.498Z,2.90
2024-02-03T08:53:47.814Z,3.25
2024-02-03T08:56:16.063Z,2.47
2024-02-03T08:58:44.306Z,3.08
2024-02-03T09:01:13.162Z,2.53
2024-02-03T09:03:41.485Z,3.90
2024-02-03T09:06:12.125Z,2.45
2024-02-03T09:08:41.646Z,2.80
2024-02-03T09:11:09.802Z,2.90
2024-02-03T09:13:37.990Z,2.63
2024-02-03T09:16:06.973Z,2.45
2024-02-03T09:18:35.368Z,2.47
2024-02-03T09:21:03.623Z,3.47
2024-02-03T09:23:31.778Z,2.92
2024-02-03T09:26:02.417Z,2.60
2024-02-03T09:28:30.560Z,2.60
2024-02-03T09:30:58.781Z,2.35
2024-02-03T09:33:27.057Z,2.50
2024-02-03T09:35:55.273Z,2.50
2024-02-03T09:38:23.569Z,2.13
2024-02-03T09:40:54.260Z,2.63
2024-02-03T09:43:26.297Z,2.50
2024-02-03T09:45:55.102Z,2.45
2024-02-03T09:48:24.875Z,2.30
2024-02-03T09:50:53.287Z,2.63
2024-02-03T09:53:21.478Z,3.22
2024-02-03T09:55:49.641Z,2.35
2024-02-03T09:58:17.818Z,2.50
2024-02-03T10:00:52.951Z,2.28
2024-02-03T10:03:21.396Z,2.60
2024-02-03T10:05:53.184Z,2.22
2024-02-03T10:08:21.390Z,2.00
2024-02-03T10:10:54.192Z,2.45
2024-02-03T10:13:22.461Z,2.38
2024-02-03T10:16:01.449Z,2.20
2024-02-03T10:18:30.566Z,2.65
2024-02-03T10:21:01.134Z,2.38
2024-02-03T10:23:29.532Z,2.35
2024-02-03T10:25:58.331Z,2.72
2024-02-03T10:28:26.617Z,2.40
2024-02-03T10:30:59.728Z,2.90
2024-02-03T10:33:31.327Z,2.40
2024-02-03T10:36:02.448Z,2.00
2024-02-03T10:38:30.695Z,2.10
2024-02-03T10:40:59.592Z,2.85
2024-02-03T10:43:31.010Z,3.00
2024-02-03T10:46:03.372Z,2.42
2024-02-03T10:48:35.727Z,2.53
2024-02-03T10:51:08.273Z,3.03
2024-02-03T10:53:41.576Z,2.55
2024-02-03T10:56:13.407Z,2.50
2024-02-03T10:58:42.984Z,3.10
2024-02-03T11:01:16.761Z,2.83
2024-02-03T11:03:49.378Z,2.85
2024-02-03T11:06:25.906Z,3.00
2024-02-03T11:08:54.124Z,3.40
2024-02-03T11:11:27.086Z,2.85
2024-02-03T11:13:55.920Z,2.92
2024-02-03T11:16:24.114Z,3.03
2024-02-03T11:18:53.728Z,3.17
2024-02-03T11:21:28.504Z,3.08
2024-02-03T11:23:56.842Z,2.80
2024-02-03T11:26:25.067Z,4.05
2024-02-03T11:28:53.218Z,2.70
2024-02-03T11:31:22.964Z,3.47
2024-02-03T11:33:51.322Z,3.90
2024-02-03T11:36:20.897Z,2.90
2024-02-03T11:38:50.210Z,3.03
2024-02-03T11:41:18.845Z,2.90
2024-02-03T11:43:48.709Z,2.80
2024-02-03T11:46:17.066Z,2.72
2024-02-03T11:48:46.919Z,3.22
2024-02-03T11:51:17.058Z,3.70
2024-02-03T11:53:46.649Z,3.28
2024-02-03T11:56:14.842Z,3.42
2024-02-03T11:58:43.098Z,3.20
2024-02-03T12:01:15.285Z,3.00
2024-02-03T12:03:43.820Z,3.67
2024-02-03T12:06:12.640Z,3.33
2024-02-03T12:08:41.256Z,3.13
2024-02-03T12:11:13.714Z,2.75
2024-02-03T12:13:44.840Z,2.78
2024-02-03T12:16:13.565Z,3.08
2024-02-03T12:18:41.924Z,2.70
2024-02-03T12:21:10.392Z,2.75
2024-02-03T12:23:39.841Z,3.10
2024-02-03T12:26:08.026Z,3.10
2024-02-03T12:28:38.066Z,3.88
2024-02-03T12:31:06.474Z,2.60
2024-02-03T12:33:34.882Z,2.70
2024-02-03T12:36:03.743Z,3.30
2024-02-03T12:38:31.997Z,2.70
2024-02-03T12:41:01.191Z,3.03
2024-02-03T12:43:29.410Z,2.72
2024-02-03T12:45:59.019Z,2.63
2024-02-03T12:48:27.347Z,2.42
2024-02-03T12:50:57.219Z,2.70
2024-02-03T12:53:25.875Z,3.55
2024-02-03T12:55:54.175Z,2.80
2024-02-03T12:58:23.507Z,3.00
2024-02-03T13:00:52.451Z,2.40
2024-02-03T13:03:22.065Z,2.58
2024-02-03T13:05:50.687Z,2.58
2024-02-03T13:08:19.619Z,2.63
2024-02-03T13:10:48.376Z,2.95
2024-02-03T13:13:16.816Z,3.05
2024-02-03T13:15:45.082Z,3.00
2024-02-03T13:18:13.889Z,2.80
2024-02-03T13:20:43.512Z,2.63
2024-02-03T13:23:12.437Z,2.47
2024-02-03T13:25:40.591Z,3.25
2024-02-03T13:28:08.992Z,3.03
2024-02-03T13:30:37.206Z,2.70
2024-02-03T13:33:06.178Z,2.70
2024-02-03T13:35:34.449Z,2.08
2024-02-03T13:38:05.542Z,2.20
2024-02-03T13:40:34.908Z,2.30
2024-02-03T13:43:03.243Z,1.95
2024-02-03T13:45:32.588Z,2.00
2024-02-03T13:48:01.076Z,2.10
2024-02-03T13:50:29.461Z,2.15
2024-02-03T13:52:57.696Z,2.08
2024-02-03T13:55:27.234Z,1.90
2024-02-03T13:57:55.471Z,2.00
2024-02-03T14:00:23.978Z,2.33
2024-02-03T14:02:52.312Z,2.13
2024-02-03T14:05:20.551Z,1.90
2024-02-03T14:07:48.910Z,1.95
2024-02-03T14:10:17.571Z,2.20
2024-02-03T14:12:47.318Z,2.25
2024-02-03T14:15:15.889Z,2.45
2024-02-03T14:17:44.208Z,2.22
2024-02-03T14:20:13.625Z,2.10
2024-02-03T14:22:41.970Z,1.92
2024-02-03T14:25:11.212Z,2.10
2024-02-03T14:27:39.592Z,2.42
2024-02-03T14:30:10.487Z,2.35
2024-02-03T14:32:38.721Z,2.30
2024-02-03T14:35:08.088Z,2.30
2024-02-03T14:37:36.354Z,2.33
2024-02-03T14:40:06.083Z,2.20
2024-02-03T14:42:34.405Z,2.63
2024-02-03T14:45:02.571Z,2.30
2024-02-03T14:47:32.390Z,2.63
2024-02-03T14:50:00.688Z,3.05
2024-02-03T14:52:29.013Z,2.67
2024-02-03T14:54:58.786Z,2.00
2024-02-03T14:57:27.027Z,2.55
2024-02-03T14:59:55.224Z,2.28
2024-02-03T15:02:24.613Z,2.10
2024-02-03T15:04:54.110Z,2.20
2024-02-03T15:07:22.295Z,2.05
2024-02-03T15:09:50.630Z,2.20
2024-02-03T15:12:25.804Z,2.38
2024-02-03T15:14:54.221Z,2.15
2024-02-03T15:17:22.416Z,2.47
2024-02-03T15:19:51.271Z,2.00
2024-02-03T15:22:20.970Z,2.22
2024-02-03T15:24:50.083Z,2.13
2024-02-03T15:27:18.960Z,1.80
2024-02-03T15:29:47.204Z,2.10
2024-02-03T15:32:15.616Z,1.90
2024-02-03T15:34:43.899Z,1.73
2024-02-03T15:37:12.150Z,1.88
2024-02-03T15:39:41.900Z,2.47
2024-02-03T15:42:10.181Z,2.08
2024-02-03T15:44:45.396Z,2.10
2024-02-03T15:47:14.641Z,1.70
2024-02-03T15:49:43.104Z,2.20
2024-02-03T15:52:11.634Z,1.90
2024-02-03T15:54:41.379Z,2.42
2024-02-03T15:57:11.851Z,1.90
2024-02-03T15:59:41.102Z,2.83
2024-02-03T16:02:09.877Z,1.80
2024-02-03T16:04:38.603Z,1.70
2024-02-03T16:07:07.109Z,2.35
2024-02-03T16:09:35.405Z,1.85
2024-02-03T16:12:05.834Z,2.33
2024-02-03T16:14:34.139Z,1.88
2024-02-03T16:17:02.451Z,2.00
2024-02-03T16:19:30.741Z,2.00
2024-02-03T16:22:00.000Z,2.20
2024-02-03T16:24:29.746Z,2.13
2024-02-03T16:27:00.326Z,2.35
2024-02-03T16:29:29.847Z,2.28
2024-02-03T16:31:58.011Z,2.00
2024-02-03T16:34:26.443Z,2.28
2024-02-03T16:36:54.713Z,1.83
2024-02-03T16:39:22.901Z,1.90
2024-02-03T16:41:51.142Z,2.63
2024-02-03T16:44:19.446Z,2.63
2024-02-03T16:46:49.024Z,2.17
2024-02-03T16:49:17.241Z,2.40
2024-02-03T16:51:45.887Z,2.00
2024-02-03T16:54:15.335Z,5.05
2024-02-03T16:56:43.566Z,2.53
2024-02-03T16:59:11.770Z,2.70
2024-02-03T17:01:44.852Z,2.42
2024-02-03T17:04:17.345Z,2.20
2024-02-03T17:06:49.037Z,2.20
2024-02-03T17:09:18.602Z,2.30
2024-02-03T17:11:46.964Z,2.38
2024-02-03T17:14:16.059Z,2.10
2024-02-03T17:16:44.474Z,2.78
2024-02-03T17:19:14.232Z,2.40
2024-02-03T17:21:43.576Z,2.72
2024-02-03T17:24:11.976Z,2.60
2024-02-03T17:26:40.142Z,2.28
2024-02-03T17:29:08.288Z,2.53
2024-02-03T17:31:36.432Z,2.63
2024-02-03T17:34:04.739Z,2.50
2024-02-03T17:36:34.451Z,2.03
2024-02-03T17:39:02.636Z,2.58
2024-02-03T17:41:30.847Z,2.25
2024-02-03T17:43:59.095Z,2.20
2024-02-03T17:46:27.613Z,2.58
2024-02-03T17:48:56.650Z,3.40
2024-02-03T17:51:25.485Z,2.33
2024-02-03T17:53:55.026Z,2.63
2024-02-03T17:56:23.179Z,3.85
2024-02-03T17:58:51.321Z,2.50
2024-02-03T18:01:20.448Z,2.88
2024-02-03T18:03:48.799Z,3.08
2024-02-03T18:06:17.218Z,3.53
2024-02-03T18:08:45.494Z,3.03
2024-02-03T18:11:15.059Z,3.08
2024-02-03T18:13:43.226Z,3.40
2024-02-03T18:16:18.377Z,2.80
2024-02-03T18:18:46.949Z,3.20
2024-02-03T18:21:16.136Z,3.88
2024-02-03T18:23:44.614Z,4.20
2024-02-03T18:26:12.741Z,2.85
2024-02-03T18:28:42.233Z,3.20
2024-02-03T18:31:10.480Z,3.85
2024-02-03T18:33:39.404Z,3.33
2024-02-03T18:36:08.000Z,3.67
2024-02-03T18:38:36.290Z,3.38
2024-02-03T18:41:04.591Z,3.78
2024-02-03T18:43:33.640Z,3.90
2024-02-03T18:46:03.221Z,4.05
2024-02-03T18:48:32.840Z,4.00
2024-02-03T18:51:01.212Z,3.63
2024-02-03T18:53:31.841Z,3.50
2024-02-03T18:56:00.015Z,3.65
2024-02-03T18:58:28.647Z,3.97
2024-02-03T19:00:57.772Z,4.15
2024-02-03T19:03:27.384Z,3.50
2024-02-03T19:05:55.755Z,5.82
2024-02-03T19:08:24.347Z,4.68
2024-02-03T19:10:52.921Z,4.30
2024-02-03T19:13:21.079Z,4.40
2024-02-03T19:15:49.314Z,4.20
2024-02-03T19:18:18.182Z,3.60
2024-02-03T19:20:49.729Z,5.28
2024-02-03T19:23:20.271Z,4.57
2024-02-03T19:25:52.048Z,4.22
2024-02-03T19:28:21.375Z,4.80
2024-02-03T19:30:49.562Z,4.47
2024-02-03T19:33:18.143Z,4.47
2024-02-03T19:35:48.960Z,5.43
2024-02-03T19:38:18.338Z,5.03
2024-02-03T19:40:50.252Z,4.18
2024-02-03T19:43:19.197Z,4.80
2024-02-03T19:45:47.422Z,5.47
2024-02-03T19:48:15.808Z,5.03
2024-02-03T19:50:44.603Z,6.45
2024-02-03T19:53:14.230Z,4.78
2024-02-03T19:55:42.475Z,5.15
2024-02-03T19:58:10.778Z,4.65
2024-02-03T20:00:39.250Z,5.30
2024-02-03T20:03:08.189Z,5.53
2024-02-03T20:05:36.375Z,5.10
2024-02-03T20:08:05.298Z,4.25
2024-02-03T20:10:35.091Z,4.88
2024-02-03T20:13:04.337Z,4.78
2024-02-03T20:15:32.653Z,4.30
2024-02-03T20:18:01.040Z,4.25
2024-02-03T20:20:30.492Z,3.95
2024-02-03T20:22:58.789Z,4.40
2024-02-03T20:25:27.040Z,4.78
2024-02-03T20:27:56.667Z,4.90
2024-02-03T20:30:25.075Z,4.60
2024-02-03T20:32:53.334Z,4.15
2024-02-03T20:35:21.696Z,4.93
2024-02-03T20:37:50.637Z,5.45
2024-02-03T20:40:19.157Z,5.25
2024-02-03T20:42:47.379Z,5.10
2024-02-03T20:45:17.172Z,5.40
2024-02-03T20:47:45.390Z,4.30
2024-02-03T20:50:13.700Z,4.57
2024-02-03T20:52:42.032Z,4.40
2024-02-03T20:55:10.435Z,4.32
2024-02-03T20:57:38.884Z,4.93
2024-02-03T21:00:09.518Z,4.40
2024-02-03T21:02:39.243Z,4.65
2024-02-03T21:05:07.770Z,4.55
2024-02-03T21:07:36.131Z,4.15
2024-02-03T21:10:05.396Z,4.00
2024-02-03T21:12:33.796Z,4.90
2024-02-03T21:15:02.133Z,4.65
2024-02-03T21:17:31.545Z,4.20
2024-02-03T21:20:02.506Z,4.60
2024-02-03T21:22:30.944Z,6.22
2024-02-03T21:24:59.205Z,4.80
2024-02-03T21:27:27.465Z,5.35
2024-02-03T21:29:55.634Z,4.68
2024-02-03T21:32:23.794Z,4.63
2024-02-03T21:34:52.092Z,4.63
2024-02-03T21:37:22.780Z,4.65
2024-02-03T21:39:51.060Z,4.88
2024-02-03T21:42:20.086Z,3.95
2024-02-03T21:44:48.444Z,4.00
2024-02-03T21:47:16.623Z,4.15
2024-02-03T21:49:44.851Z,4.05
2024-02-03T21:52:13.032Z,4.50
2024-02-03T21:54:43.719Z,4.10
2024-02-03T21:57:11.864Z,4.32
2024-02-03T21:59:40.010Z,4.25
2024-02-03T22:02:08.169Z,4.82
2024-02-03T22:04:36.506Z,4.47
2024-02-03T22:07:05.187Z,4.20
2024-02-03T22:09:33.347Z,5.28
2024-02-03T22:12:02.925Z,4.18
2024-02-03T22:14:31.339Z,4.63
2024-02-03T22:16:59.500Z,4.18
2024-02-03T22:19:30.146Z,4.25
2024-02-03T22:21:58.433Z,5.60
2024-02-03T22:24:26.790Z,4.70
2024-02-03T22:26:55.526Z,5.60
2024-02-03T22:29:29.568Z,4.50
2024-02-03T22:34:27.326Z,4.00
2024-02-03T22:36:55.636Z,4.55
2024-02-03T22:39:24.020Z,4.32
2024-02-03T22:41:56.931Z,3.88
2024-02-03T22:44:26.461Z,4.47
2024-02-03T22:46:54.608Z,3.60
2024-02-03T22:49:24.841Z,4.40
2024-02-03T22:51:53.150Z,3.40
2024-02-03T22:54:21.441Z,3.75
2024-02-03T22:56:51.372Z,3.30
2024-02-03T22:59:19.617Z,4.00
2024-02-03T23:01:49.296Z,4.50
2024-02-03T23:04:17.770Z,4.45
2024-02-03T23:06:46.368Z,3.85
2024-02-03T23:09:16.551Z,3.10
2024-02-03T23:11:44.751Z,3.97
2024-02-03T23:14:13.191Z,3.63
2024-02-03T23:16:41.414Z,4.13
2024-02-03T23:19:11.118Z,4.43
2024-02-03T23:21:40.437Z,4.20
2024-02-03T23:24:09.091Z,3.95
2024-02-03T23:26:37.671Z,5.00
2024-02-03T23:29:05.842Z,3.35
2024-02-03T23:31:34.067Z,3.72
2024-02-03T23:34:02.491Z,3.58
2024-02-03T23:36:32.344Z,3.70
2024-02-03T23:39:00.568Z,3.40
2024-02-03T23:41:28.745Z,4.28
2024-02-03T23:43:57.190Z,3.85
2024-02-03T23:46:25.425Z,3.30
2024-02-03T23:48:53.655Z,3.45
2024-02-03T23:51:21.911Z,3.20
2024-02-03T23:53:52.370Z,2.72
2024-02-03T23:56:20.618Z,2.40
2024-02-03T23:58:48.773Z,2.42
